Latest Weather Observations for Tidbinbilla

IDN60801

Issued at 12:12 pm EST Wednesday 22 May 2019 (issued every 10 minutes, with the page automatically refreshed every 10 minutes)

About weather observations | Map of weather stations | Latest weather observations for NSW | Other Formats
Station Details ID: 250069 Name: PORTABLE RFSACT01 Lat: -35.46 Lon: 148.93 Height: 834.0 m
Data from the previous 72 hours. | See also: Recent months for locations in New South Wales
Date/Time
EST
Temp
°C
App
Temp
°C
Dew
Point
°C
Rel
Hum
%
Delta-T
°C
Wind Press
QNH
hPa
Press
MSL
hPa
Rain since
9am
mm
Dir  Spd
km/h
Gust
km/h
Spd
kts
Gust
kts
22/12:00pm 17.4 15.5 9.1 58 4.5 N 9 9 5 5 - - 0.0
22/11:50am 17.6 15.9 8.3 54 5.0 NNE 7 7 4 4 - - 0.0
22/11:40am 17.2 15.6 8.7 57 4.6 N 7 9 4 5 - - 0.0
22/11:30am 16.5 15.0 9.1 61 4.0 NNE 7 9 4 5 - - 0.0
22/11:20am 16.9 15.7 9.5 61 4.0 N 6 7 3 4 - - 0.0
22/11:10am 15.8 14.4 9.7 67 3.3 N 7 9 4 5 - - 0.0
22/11:00am 15.6 14.2 9.4 66 3.3 NW 7 9 4 5 - - 0.0
22/10:50am 15.5 14.1 9.0 65 3.5 NNW 6 7 3 4 - - 0.0
22/10:40am 15.1 14.2 9.4 69 3.1 NW 4 7 2 4 - - 0.0
22/10:30am 14.7 14.3 9.8 72 2.7 NW 2 6 1 3 - - 0.0
22/10:20am 14.3 13.7 9.1 71 2.8 NW 2 6 1 3 - - 0.0
22/10:10am 14.3 13.5 9.5 73 2.6 NW 4 4 2 2 - - 0.0
22/10:00am 14.1 13.2 9.2 72 2.6 NNW 4 4 2 2 - - 0.0
22/09:50am 13.8 12.9 9.4 75 2.3 NNW 4 4 2 2 - - 0.0
22/09:40am 13.7 13.1 9.0 73 2.5 NNW 2 6 1 3 - - 0.0
22/09:30am 13.0 12.4 8.9 76 2.2 NNE 2 6 1 3 - - 0.0
22/09:20am 12.6 12.0 8.9 78 1.9 W 2 6 1 3 - - 0.0
22/09:10am 12.6 12.0 8.8 77 2.0 NNW 2 6 1 3 - - 0.0
22/09:00am 12.3 11.1 8.2 76 2.1 SE 4 6 2 3 - - 0.0
22/08:50am 12.1 11.0 8.5 78 1.9 ENE 4 6 2 3 - - 0.0
22/08:40am 11.5 10.7 8.0 79 1.8 SW 2 6 1 3 - - 0.0
22/08:30am 11.3 10.5 8.2 81 1.6 W 2 6 1 3 - - 0.0
22/08:20am 10.9 10.0 7.8 81 1.6 SW 2 4 1 2 - - 0.0
22/08:10am 10.6 10.1 7.7 82 1.5 CALM 0 2 0 1 - - 0.0
22/08:00am 10.3 9.4 7.6 83 1.4 ESE 2 4 1 2 - - 0.0
22/07:50am 10.0 8.6 7.4 84 1.3 N 4 9 2 5 - - 0.0
22/07:40am 9.5 8.1 7.3 86 1.1 SSW 4 7 2 4 - - 0.0
22/07:30am 9.3 7.9 7.1 86 1.1 N 4 9 2 5 - - 0.0
22/07:20am 8.7 7.6 6.9 88 0.9 W 2 4 1 2 - - 0.0
22/07:10am 8.5 7.4 6.8 89 0.8 WNW 2 6 1 3 - - 0.0
22/07:00am 8.2 6.7 6.9 91 0.6 NNW 4 6 2 3 - - 0.0
22/06:50am 8.3 7.2 6.9 91 0.7 S 2 4 1 2 - - 0.0
22/06:40am 8.4 7.3 6.9 90 0.7 S 2 7 1 4 - - 0.0
22/06:30am 8.5 6.6 6.9 90 0.8 E 6 9 3 5 - - 0.0
22/06:20am 8.0 6.9 6.9 93 0.5 SW 2 6 1 3 - - 0.0
22/06:10am 7.9 6.4 6.8 93 0.5 SW 4 9 2 5 - - 0.0
22/06:00am 7.9 6.4 6.8 93 0.5 S 4 6 2 3 - - 0.0
22/05:50am 8.0 6.5 6.7 91 0.6 S 4 9 2 5 - - 0.0
22/05:40am 7.6 5.7 6.6 93 0.5 S 6 7 3 4 - - 0.0
22/05:30am 8.1 6.2 6.8 91 0.6 ESE 6 7 3 4 - - 0.0
22/05:20am 8.9 7.4 6.9 87 1.0 ESE 4 7 2 4 - - 0.0
22/05:10am 9.6 8.1 6.8 83 1.4 S 4 7 2 4 - - 0.0
22/05:00am 9.7 7.7 7.2 84 1.2 WSW 7 9 4 5 - - 0.0
22/04:50am 10.8 9.8 7.4 79 1.7 NW 2 6 1 3 - - 0.0
22/04:40am 10.5 9.2 7.5 82 1.5 NE 4 7 2 4 - - 0.0
22/04:30am 11.0 10.0 7.5 79 1.8 E 2 4 1 2 - - 0.0
22/04:20am 11.1 9.3 7.3 77 1.9 SW 6 9 3 5 - - 0.0
22/04:10am 11.0 9.5 6.9 76 2.0 W 4 6 2 3 - - 0.0
22/04:00am 11.1 10.2 7.8 80 1.7 SE 2 6 1 3 - - 0.0
22/03:50am 11.6 9.9 7.5 76 2.1 SW 6 11 3 6 - - 0.0
22/03:40am 11.3 10.0 7.7 78 1.8 E 4 6 2 3 - - 0.0
22/03:30am 12.5 10.7 7.2 70 2.7 S 6 9 3 5 - - 0.0
22/03:20am 11.7 9.5 7.7 76 2.0 SSW 9 17 5 9 - - 0.0
22/03:10am 11.3 9.6 7.7 78 1.8 SSW 6 9 3 5 - - 0.0
22/03:00am 11.2 9.3 7.6 78 1.8 S 7 9 4 5 - - 0.0
22/02:50am 11.7 9.4 7.4 75 2.2 S 9 13 5 7 - - 0.0
22/02:40am 11.4 9.3 6.8 73 2.3 S 7 15 4 8 - - 0.0
22/02:30am 12.3 11.0 7.5 72 2.4 ESE 4 6 2 3 - - 0.0
22/02:20am 12.1 10.5 7.8 75 2.2 NNE 6 7 3 4 - - 0.0
22/02:10am 12.4 10.5 7.4 71 2.5 NE 7 11 4 6 - - 0.0
22/02:00am 11.8 10.5 7.5 75 2.2 SSW 4 9 2 5 - - 0.0
22/01:50am 11.8 10.5 7.8 76 2.0 SSE 4 9 2 5 - - 0.0
22/01:40am 13.2 11.5 7.5 68 2.9 SE 6 7 3 4 - - 0.0
22/01:30am 13.5 12.2 7.7 68 3.0 E 4 7 2 4 - - 0.0
22/01:20am 13.3 12.0 7.8 69 2.8 SE 4 6 2 3 - - 0.0
22/01:10am 13.8 11.5 7.6 66 3.2 SW 9 17 5 9 - - 0.0
22/01:00am 13.8 11.9 7.5 66 3.2 S 7 13 4 7 - - 0.0
22/12:50am 14.0 12.2 7.3 64 3.4 SSW 6 11 3 6 - - 0.0
22/12:40am 14.1 12.3 7.0 62 3.6 W 6 9 3 5 - - 0.0
22/12:30am 13.7 12.2 6.9 63 3.5 W 4 11 2 6 - - 0.0
22/12:20am 13.5 11.5 7.0 65 3.3 NW 7 9 4 5 - - 0.0
22/12:10am 13.7 11.8 6.6 62 3.6 SW 6 9 3 5 - - 0.0
22/12:00am 13.6 12.5 6.7 63 3.5 NE 2 4 1 2 - - 0.0
 
Date/Time
EST
Temp
°C
App
Temp
°C
Dew
Point
°C
Rel
Hum
%
Delta-T
°C
Wind Press
QNH
hPa
Press
MSL
hPa
Rain since
9am
mm
Dir  Spd
km/h
Gust
km/h
Spd
kts
Gust
kts
21/11:50pm 13.8 12.3 6.8 62 3.5 SSW 4 7 2 4 - - 0.0
21/11:40pm 14.1 12.0 6.5 60 3.8 SSW 7 15 4 8 - - 0.0
21/11:30pm 13.0 11.0 6.4 64 3.3 SSW 6 17 3 9 - - 0.0
21/11:20pm 13.5 11.0 6.6 63 3.5 SW 9 13 5 7 - - 0.0
21/11:10pm 13.2 11.2 6.4 63 3.4 SW 6 11 3 6 - - 0.0
21/11:00pm 13.8 11.6 6.3 60 3.8 SW 7 13 4 7 - - 0.0
21/10:50pm 13.6 11.0 6.1 60 3.7 SW 9 19 5 10 - - 0.0
21/10:40pm 13.3 11.7 6.5 63 3.4 SSW 4 7 2 4 - - 0.0
21/10:30pm 13.0 11.4 6.5 64 3.3 ENE 4 7 2 4 - - 0.0
21/10:20pm 13.7 11.8 6.8 63 3.5 W 6 7 3 4 - - 0.0
21/10:10pm 14.1 11.5 6.2 59 4.0 SW 9 13 5 7 - - 0.0
21/10:00pm 14.4 11.1 6.5 59 4.0 SSW 13 15 7 8 - - 0.0
21/09:50pm 14.7 11.0 6.3 57 4.2 SSW 15 19 8 10 - - 0.0
21/09:40pm 14.6 10.5 6.0 56 4.3 SSW 17 20 9 11 - - 0.0
21/09:30pm 14.7 10.2 6.0 56 4.4 SSW 19 22 10 12 - - 0.0
21/09:20pm 14.5 10.3 5.9 56 4.3 SSE 17 22 9 12 - - 0.0
21/09:10pm 14.0 10.1 5.3 55 4.3 SE 15 19 8 10 - - 0.0
21/09:00pm 13.7 9.6 4.6 54 4.4 SSE 15 19 8 10 - - 0.0
21/08:50pm 13.5 11.0 4.0 52 4.5 SSW 6 7 3 4 - - 0.0
21/08:40pm 13.4 10.7 3.9 52 4.5 W 7 13 4 7 - - 0.0
21/08:30pm 13.3 10.3 4.0 53 4.4 WSW 9 13 5 7 - - 0.0
21/08:20pm 13.0 10.3 3.8 53 4.4 W 7 11 4 6 - - 0.0
21/08:10pm 13.0 9.7 4.4 56 4.1 SW 11 15 6 8 - - 0.0
21/08:00pm 13.1 9.7 4.2 54 4.2 SSW 11 15 6 8 - - 0.0
21/07:50pm 13.3 10.8 4.8 56 4.1 SW 7 13 4 7 - - 0.0
21/07:40pm 13.1 9.9 5.1 58 3.9 SW 11 17 6 9 - - 0.0
21/07:30pm 12.4 10.1 4.9 60 3.6 SSW 6 15 3 8 - - 0.0
21/07:20pm 12.2 10.6 6.2 67 3.0 SW 4 7 2 4 - - 0.0
21/07:10pm 12.5 11.1 7.2 70 2.7 W 4 9 2 5 - - 0.0
21/07:00pm 12.6 10.8 7.1 69 2.8 SW 6 13 3 7 - - 0.0
21/06:50pm 12.7 10.7 7.2 69 2.8 SSW 7 9 4 5 - - 0.0
21/06:40pm 12.9 10.5 7.0 67 3.0 SSW 9 13 5 7 - - 0.0
21/06:30pm 12.8 10.8 7.3 69 2.8 SSW 7 9 4 5 - - 0.0
21/06:20pm 12.8 11.1 7.6 70 2.7 S 6 9 3 5 - - 0.0
21/06:10pm 12.9 11.0 7.5 69 2.8 SW 7 9 4 5 - - 0.0
21/06:00pm 13.1 10.8 7.5 69 2.9 SSW 9 11 5 6 - - 0.0
21/05:50pm 13.2 11.5 7.4 68 3.0 SSW 6 7 3 4 - - 0.0
21/05:40pm 13.5 11.6 7.4 66 3.1 SW 7 11 4 6 - - 0.0
21/05:30pm 13.6 11.2 7.2 65 3.3 SW 9 19 5 10 - - 0.0
21/05:20pm 13.6 12.2 7.4 66 3.2 SW 4 6 2 3 - - 0.0
21/05:10pm 13.9 12.1 7.3 64 3.4 WSW 6 9 3 5 - - 0.0
21/05:00pm 14.1 12.1 7.3 63 3.5 WSW 7 13 4 7 - - 0.0
21/04:50pm 14.3 12.0 7.4 63 3.6 W 9 13 5 7 - - 0.0
21/04:40pm 14.4 11.7 7.3 62 3.6 WSW 11 15 6 8 - - 0.0
21/04:30pm 14.6 12.2 6.8 59 4.0 WSW 9 13 5 7 - - 0.0
21/04:20pm 14.8 11.7 7.2 60 3.9 WSW 13 19 7 10 - - 0.0
21/04:10pm 15.0 11.9 7.3 60 4.0 WSW 13 15 7 8 - - 0.0
21/04:00pm 15.2 12.1 7.1 58 4.2 WSW 13 17 7 9 - - 0.0
21/03:50pm 15.4 11.9 7.0 57 4.3 WSW 15 22 8 12 - - 0.0
21/03:40pm 15.6 11.9 6.5 54 4.6 WSW 15 19 8 10 - - 0.0
21/03:30pm 15.8 11.8 6.8 55 4.6 SW 17 20 9 11 - - 0.0
21/03:20pm 15.9 11.4 6.1 52 5.0 SW 19 28 10 15 - - 0.0
21/03:10pm 16.1 10.6 6.1 51 5.1 SW 24 28 13 15 - - 0.0
21/03:00pm 16.3 10.4 5.7 49 5.3 SW 26 30 14 16 - - 0.0
21/02:50pm 16.7 11.0 6.5 51 5.2 SW 26 32 14 17 - - 0.0
21/02:40pm 16.9 12.4 7.0 52 5.1 SW 20 28 11 15 - - 0.0
21/02:30pm 16.6 13.5 7.2 54 4.9 WSW 13 22 7 12 - - 0.0
21/02:20pm 16.4 12.1 7.2 54 4.8 SW 19 30 10 16 - - 0.0
21/02:10pm 16.5 13.2 7.9 57 4.5 SW 15 19 8 10 - - 0.0
21/02:00pm 16.9 13.3 8.2 56 4.6 SW 17 22 9 12 - - 0.0
21/01:50pm 17.4 13.4 8.1 54 4.9 SW 19 28 10 15 - - 0.0
21/01:40pm 17.4 13.3 7.7 53 5.1 SW 19 24 10 13 - - 0.0
21/01:30pm 17.4 14.2 8.4 55 4.8 SW 15 22 8 12 - - 0.0
21/01:20pm 17.1 12.5 8.3 56 4.7 SW 22 32 12 17 - - 0.0
21/01:10pm 17.4 12.5 8.4 55 4.8 SW 24 35 13 19 - - 0.0
21/01:00pm 17.5 13.7 9.0 57 4.6 SW 19 26 10 14 - - 0.0
21/12:50pm 17.5 14.4 8.9 57 4.6 SW 15 19 8 10 - - 0.0
21/12:40pm 17.1 13.6 8.6 57 4.6 SW 17 30 9 16 - - 0.0
21/12:30pm 16.9 13.0 8.7 58 4.4 WSW 19 26 10 14 - - 0.0
21/12:20pm 17.1 14.4 8.8 58 4.5 SW 13 19 7 10 - - 0.0
21/12:10pm 17.0 13.8 8.6 57 4.5 SW 15 24 8 13 - - 0.0
21/12:00pm 17.2 13.1 8.5 56 4.7 WSW 20 26 11 14 - - 0.0
21/11:50am 17.5 13.9 8.4 55 4.9 WSW 17 24 9 13 - - 0.0
21/11:40am 17.4 13.8 8.4 55 4.8 WSW 17 22 9 12 - - 0.0
21/11:30am 17.8 14.6 8.5 54 5.0 WSW 15 19 8 10 - - 0.0
21/11:20am 17.7 14.9 8.5 55 4.9 WSW 13 19 7 10 - - 0.0
21/11:10am 17.4 13.5 8.5 56 4.8 WSW 19 26 10 14 - - 0.0
21/11:00am 17.1 13.1 8.3 56 4.7 WSW 19 33 10 18 - - 0.0
21/10:50am 17.1 13.9 8.3 56 4.7 W 15 28 8 15 - - 0.0
21/10:40am 17.1 13.9 8.6 57 4.6 W 15 30 8 16 - - 0.0
21/10:30am 17.0 13.0 8.1 55 4.7 WSW 19 22 10 12 - - 0.0
21/10:20am 16.5 11.4 7.7 56 4.6 WSW 24 33 13 18 - - 0.0
21/10:10am 16.3 12.1 7.6 56 4.6 WSW 19 32 10 17 - - 0.0
21/10:00am 16.8 11.3 7.7 55 4.8 SW 26 33 14 18 - - 0.0
21/09:50am 16.6 11.8 7.2 54 4.9 SW 22 28 12 15 - - 0.0
21/09:40am 16.1 11.3 7.2 55 4.6 SW 22 32 12 17 - - 0.0
21/09:30am 16.3 11.1 7.1 54 4.8 SW 24 32 13 17 - - 0.0
21/09:20am 16.2 11.3 6.7 53 4.9 SW 22 32 12 17 - - 0.0
21/09:10am 16.2 13.4 7.1 55 4.7 SW 11 15 6 8 - - 0.0
21/09:00am 15.9 11.6 6.9 55 4.6 SW 19 24 10 13 - - 0.0
21/08:50am 15.9 11.5 6.7 54 4.7 SW 19 24 10 13 - - 0.0
21/08:40am 15.7 10.7 6.6 54 4.7 SW 22 30 12 16 - - 0.0
21/08:30am 15.7 12.4 6.5 54 4.7 SW 13 20 7 11 - - 0.0
21/08:20am 15.4 12.9 6.6 55 4.5 SW 9 11 5 6 - - 0.0
21/08:10am 14.9 12.7 6.4 57 4.3 SW 7 15 4 8 - - 0.0
21/08:00am 14.7 12.2 6.4 57 4.2 WSW 9 13 5 7 - - 0.0
21/07:50am 14.9 11.9 6.0 55 4.5 SSW 11 15 6 8 - - 0.0
21/07:40am 14.8 12.7 5.8 55 4.5 SSW 6 11 3 6 - - 0.0
21/07:30am 14.3 12.6 5.8 56 4.2 SW 4 11 2 6 - - 0.0
21/07:20am 13.6 11.4 5.3 57 4.1 W 6 9 3 5 - - 0.0
21/07:10am 12.5 11.0 5.2 61 3.5 SW 2 4 1 2 - - 0.0
21/07:00am 12.9 10.8 5.6 61 3.6 SSW 6 11 3 6 - - 0.0
21/06:50am 12.8 11.3 4.8 58 3.9 ESE 2 6 1 3 - - 0.0
21/06:40am 12.4 10.4 4.2 57 3.9 NE 4 6 2 3 - - 0.0
21/06:30am 11.3 9.3 4.6 63 3.2 SSE 4 6 2 3 - - 0.0
21/06:20am 11.7 9.9 5.3 65 3.1 ESE 4 9 2 5 - - 0.0
21/06:10am 13.1 11.3 5.6 60 3.7 WNW 4 9 2 5 - - 0.0
21/06:00am 13.5 11.9 4.3 53 4.4 SE 2 7 1 4 - - 0.0
21/05:50am 13.7 11.3 4.5 54 4.4 SSW 6 13 3 7 - - 0.0
21/05:40am 13.6 11.0 4.2 53 4.5 SW 7 13 4 7 - - 0.0
21/05:30am 13.5 10.9 4.4 54 4.4 SW 7 11 4 6 - - 0.0
21/05:20am 13.2 10.4 5.0 57 4.0 SSW 9 11 5 6 - - 0.0
21/05:10am 13.3 10.8 4.8 56 4.1 SSW 7 9 4 5 - - 0.0
21/05:00am 13.3 10.1 5.1 57 4.0 SSW 11 17 6 9 - - 0.0
21/04:50am 13.2 9.6 5.1 58 3.9 SSW 13 17 7 9 - - 0.0
21/04:40am 12.3 9.1 4.9 60 3.6 S 11 17 6 9 - - 0.0
21/04:30am 11.9 10.8 5.3 64 3.2 CALM 0 2 0 1 - - 0.0
21/04:20am 11.9 10.5 5.3 64 3.2 ESE 2 4 1 2 - - 0.0
21/04:10am 11.8 10.0 5.6 66 3.0 ENE 4 6 2 3 - - 0.0
21/04:00am 11.7 9.9 5.5 66 3.0 NE 4 7 2 4 - - 0.0
21/03:50am 11.5 9.2 5.6 67 2.9 NE 7 13 4 7 - - 0.0
21/03:40am 11.4 9.1 5.7 68 2.8 NE 7 11 4 6 - - 0.0
21/03:30am 11.1 9.0 5.9 70 2.5 N 6 7 3 4 - - 0.0
21/03:20am 11.4 9.1 5.8 68 2.7 NE 7 9 4 5 - - 0.0
21/03:10am 11.7 9.5 6.1 68 2.8 NE 7 13 4 7 - - 0.0
21/03:00am 12.2 10.1 5.9 65 3.1 NNE 6 11 3 6 - - 0.0
21/02:50am 12.6 10.5 5.8 63 3.3 NE 6 11 3 6 - - 0.0
21/02:40am 12.7 10.1 5.9 63 3.4 NE 9 13 5 7 - - 0.0
21/02:30am 12.5 10.2 5.9 64 3.3 ENE 7 13 4 7 - - 0.0
21/02:20am 12.8 9.8 6.1 64 3.3 NE 11 13 6 7 - - 0.0
21/02:10am 12.6 9.6 5.9 63 3.3 NE 11 17 6 9 - - 0.0
21/02:00am 12.8 9.8 5.9 63 3.4 NE 11 15 6 8 - - 0.0
21/01:50am 12.9 9.9 5.9 62 3.5 NE 11 15 6 8 - - 0.0
21/01:40am 12.9 10.6 5.9 62 3.5 ENE 7 15 4 8 - - 0.0
21/01:30am 12.9 11.2 6.1 63 3.4 SE 4 7 2 4 - - 0.0
21/01:20am 13.1 11.0 5.8 61 3.6 WNW 6 6 3 3 - - 0.0
21/01:10am 12.8 11.1 5.8 62 3.4 SSE 4 4 2 2 - - 0.0
21/01:00am 13.1 10.5 5.9 61 3.6 N 9 13 5 7 - - 0.0
21/12:50am 13.2 10.5 5.8 61 3.7 NNE 9 15 5 8 - - 0.0
21/12:40am 13.2 11.0 5.4 59 3.8 SE 6 11 3 6 - - 0.0
21/12:30am 13.4 11.1 5.7 59 3.8 S 7 13 4 7 - - 0.0
21/12:20am 13.1 10.5 5.9 61 3.6 S 9 13 5 7 - - 0.0
21/12:10am 13.3 11.6 5.7 60 3.8 SE 4 6 2 3 - - 0.0
21/12:00am 13.6 12.3 5.9 59 3.8 SSW 2 6 1 3 - - 0.0
 
Date/Time
EST
Temp
°C
App
Temp
°C
Dew
Point
°C
Rel
Hum
%
Delta-T
°C
Wind Press
QNH
hPa
Press
MSL
hPa
Rain since
9am
mm
Dir  Spd
km/h
Gust
km/h
Spd
kts
Gust
kts
20/11:50pm 13.7 11.3 5.4 57 4.1 WNW 7 13 4 7 - - 0.0
20/11:40pm 13.5 11.8 5.7 59 3.9 NNE 4 7 2 4 - - 0.0
20/11:30pm 13.9 11.8 5.9 58 4.0 WNW 6 9 3 5 - - 0.0
20/11:20pm 14.1 10.9 5.1 54 4.4 NNE 11 17 6 9 - - 0.0
20/11:10pm 13.7 10.6 5.7 58 4.0 NNE 11 22 6 12 - - 0.0
20/11:00pm 13.7 11.3 5.4 57 4.1 NNW 7 15 4 8 - - 0.0
20/10:50pm 13.4 9.9 5.3 58 4.0 N 13 19 7 10 - - 0.0
20/10:40pm 13.5 11.2 5.7 59 3.9 NNW 7 9 4 5 - - 0.0
20/10:30pm 13.6 11.5 5.9 59 3.8 N 6 9 3 5 - - 0.0
20/10:20pm 13.3 10.6 5.5 59 3.8 NNE 9 13 5 7 - - 0.0
20/10:10pm 13.6 11.4 6.1 60 3.7 N 7 11 4 6 - - 0.0
20/10:00pm 13.6 11.0 6.0 60 3.8 NNE 9 15 5 8 - - 0.0
20/09:50pm 13.2 10.2 6.2 62 3.5 N 11 13 6 7 - - 0.0
20/09:40pm 13.3 10.0 6.3 62 3.5 NNE 13 15 7 8 - - 0.0
20/09:30pm 13.4 11.2 6.3 62 3.6 NNE 7 11 4 6 - - 0.0
20/09:20pm 13.4 11.2 6.4 62 3.5 NNE 7 11 4 6 - - 0.0
20/09:10pm 13.6 11.5 6.6 62 3.5 NNE 7 11 4 6 - - 0.0
20/09:00pm 13.7 10.4 6.6 62 3.6 NNE 13 17 7 9 - - 0.0
20/08:50pm 13.4 10.9 6.6 63 3.4 NNE 9 19 5 10 - - 0.0
20/08:40pm 13.9 10.7 6.7 62 3.6 NNE 13 20 7 11 - - 0.0
20/08:30pm 13.5 10.3 7.0 65 3.3 NNE 13 15 7 8 - - 0.0
20/08:20pm 13.9 10.4 7.1 63 3.5 N 15 19 8 10 - - 0.0
20/08:10pm 13.5 10.8 7.2 65 3.2 N 11 17 6 9 - - 0.0
20/08:00pm 13.7 11.1 7.6 66 3.1 NNE 11 15 6 8 - - 0.0
20/07:50pm 14.0 10.5 7.4 64 3.4 NNE 15 19 8 10 - - 0.0
20/07:40pm 13.7 11.3 7.2 65 3.3 NNE 9 15 5 8 - - 0.0
20/07:30pm 13.3 11.4 7.6 68 2.9 NNE 7 9 4 5 - - 0.0
20/07:20pm 13.3 11.5 7.8 69 2.8 NNE 7 9 4 5 - - 0.0
20/07:10pm 13.4 11.1 7.4 67 3.1 NNE 9 13 5 7 - - 0.0
20/07:00pm 13.2 11.4 7.9 70 2.7 NNE 7 9 4 5 - - 0.0
20/06:50pm 13.4 12.1 7.8 69 2.9 NNW 4 6 2 3 - - 0.0
20/06:40pm 13.5 10.8 7.4 66 3.1 N 11 15 6 8 - - 0.0
20/06:30pm 13.5 12.1 7.4 66 3.1 NW 4 7 2 4 - - 0.0
20/06:20pm 13.5 11.8 7.4 66 3.1 WNW 6 6 3 3 - - 0.0
20/06:10pm 13.3 11.5 7.2 66 3.1 WSW 6 7 3 4 - - 0.0
20/06:00pm 13.1 11.4 7.6 69 2.8 SW 6 7 3 4 - - 0.0
20/05:50pm 13.8 11.8 7.2 64 3.4 SW 7 9 4 5 - - 0.0
20/05:40pm 13.9 11.1 7.1 63 3.5 WSW 11 15 6 8 - - 0.0
20/05:30pm 13.7 11.4 7.3 65 3.3 SW 9 11 5 6 - - 0.0
20/05:20pm 13.8 11.1 7.3 65 3.3 SW 11 13 6 7 - - 0.0
20/05:00pm 14.2 11.5 7.2 63 3.6 SW 11 15 6 8 - - 0.0
20/04:50pm 14.2 10.7 7.2 63 3.6 SW 15 17 8 9 - - 0.0
20/04:40pm 14.4 10.9 7.2 62 3.7 SW 15 17 8 9 - - 0.0
20/04:30pm 14.9 10.7 7.5 61 3.8 WSW 19 28 10 15 - - 0.0
20/04:20pm 15.6 11.3 7.2 57 4.3 SW 19 28 10 15 - - 0.0
20/04:10pm 15.4 11.2 7.3 58 4.2 SW 19 26 10 14 - - 0.0
20/04:00pm 16.0 11.7 7.1 55 4.6 SW 19 28 10 15 - - 0.0
20/03:50pm 15.8 12.7 7.2 56 4.5 WSW 13 15 7 8 - - 0.0
20/03:40pm 15.5 11.6 7.0 57 4.4 SW 17 22 9 12 - - 0.0
20/03:30pm 16.2 12.3 7.0 54 4.8 WSW 17 24 9 13 - - 0.0
20/03:20pm 16.1 12.5 6.6 53 4.9 WSW 15 22 8 12 - - 0.0
20/03:10pm 16.1 11.6 7.1 55 4.7 SW 20 26 11 14 - - 0.0
20/03:00pm 16.6 12.7 7.0 53 5.0 SW 17 26 9 14 - - 0.0
20/02:50pm 16.9 12.9 6.8 51 5.2 SW 17 22 9 12 - - 0.0
20/02:40pm 17.0 13.1 7.2 52 5.1 SW 17 20 9 11 - - 0.0
20/02:30pm 16.7 12.8 7.1 53 5.0 SW 17 22 9 12 - - 0.0
20/02:20pm 15.7 11.1 6.6 54 4.7 SW 20 22 11 12 - - 0.0
20/02:10pm 15.6 11.2 6.5 54 4.6 SW 19 22 10 12 - - 0.0
20/02:00pm 15.7 11.7 6.6 54 4.7 SW 17 24 9 13 - - 0.0
20/01:50pm 16.4 14.0 7.2 54 4.8 WSW 9 17 5 9 - - 0.0
20/01:40pm 16.8 14.8 7.2 53 5.0 N 7 11 4 6 - - 0.0
20/01:30pm 17.2 14.9 7.6 53 5.1 N 9 13 5 7 - - 0.0
20/01:20pm 17.3 15.7 7.9 54 5.0 NW 6 11 3 6 - - 0.0
20/01:10pm 18.0 16.1 7.5 50 5.5 NNW 7 13 4 7 - - 0.0
20/01:00pm 17.0 14.7 7.5 53 5.0 NNW 9 15 5 8 - - 0.0
20/12:50pm 16.7 15.1 8.2 57 4.5 NNW 6 9 3 5 - - 0.0
20/12:40pm 16.3 14.5 7.3 55 4.7 NW 6 11 3 6 - - 0.0
20/12:30pm 15.8 14.1 7.5 58 4.3 NNW 6 9 3 5 - - 0.0
20/12:20pm 15.4 12.9 8.2 62 3.8 NNE 11 15 6 8 - - 0.0
20/12:10pm 16.4 14.7 8.5 59 4.2 N 7 17 4 9 - - 0.0
20/12:00pm 15.9 14.3 8.2 60 4.1 NNW 6 9 3 5 - - 0.0
20/11:50am 15.3 13.7 7.9 61 3.9 NNE 6 9 3 5 - - 0.0
20/11:40am 15.0 13.6 9.0 67 3.2 NNW 6 11 3 6 - - 0.0
20/11:30am 14.8 13.7 8.4 65 3.4 NW 4 7 2 4 - - 0.0
20/11:20am 14.5 13.8 8.6 67 3.1 NNW 2 6 1 3 - - 0.0
20/11:10am 13.8 12.2 8.0 68 3.0 WNW 6 7 3 4 - - 0.0
20/11:00am 13.0 11.4 7.9 71 2.6 NNE 6 7 3 4 - - 0.0
20/10:50am 11.6 10.4 8.2 79 1.7 W 4 6 2 3 - - 0.0
20/10:40am 11.5 10.3 8.2 80 1.7 WSW 4 6 2 3 - - 0.0
20/10:30am 11.7 10.9 8.1 78 1.8 W 2 7 1 4 - - 0.0
20/10:20am 11.6 10.8 8.1 79 1.8 NNW 2 6 1 3 - - 0.0
20/10:10am 11.4 10.5 7.9 79 1.8 SW 2 6 1 3 - - 0.0
20/10:00am 11.6 10.3 7.5 76 2.1 NNW 4 6 2 3 - - 0.0
20/09:50am 11.1 9.8 7.6 79 1.8 SSW 4 7 2 4 - - 0.0
20/09:40am 10.7 9.3 7.1 78 1.8 NNE 4 9 2 5 - - 0.0
20/09:30am 10.2 8.8 7.3 82 1.4 NE 4 9 2 5 - - 0.0
20/09:20am 10.8 9.4 7.1 78 1.8 ESE 4 7 2 4 - - 0.0
20/09:10am 10.9 9.5 7.4 79 1.8 ENE 4 7 2 4 - - 0.0
20/09:00am 11.1 9.6 6.8 75 2.1 N 4 7 2 4 - - 0.0
20/08:50am 10.2 9.0 6.5 78 1.8 ESE 2 6 1 3 - - 0.0
20/08:40am 10.4 8.3 6.7 78 1.8 NNW 7 11 4 6 - - 0.0
20/08:30am 10.4 8.4 6.3 76 2.0 NNE 6 9 3 5 - - 0.0
20/08:20am 9.5 7.5 6.2 80 1.6 NE 6 11 3 6 - - 0.0
20/08:10am 9.2 7.5 6.1 81 1.5 NE 4 6 2 3 - - 0.0
20/08:00am 8.7 7.1 6.2 84 1.2 ESE 4 7 2 4 - - 0.0
20/07:50am 8.8 7.5 5.9 82 1.4 SSW 2 7 1 4 - - 0.0
20/07:40am 8.8 7.1 6.0 82 1.3 ESE 4 7 2 4 - - 0.0
20/07:30am 8.6 7.6 5.6 81 1.4 CALM 0 2 0 1 - - 0.0
20/07:20am 8.4 7.0 5.5 82 1.4 ESE 2 4 1 2 - - 0.0
20/07:10am 8.3 7.3 5.6 83 1.3 CALM 0 2 0 1 - - 0.0
20/07:00am 8.3 6.9 5.5 82 1.3 NNE 2 4 1 2 - - 0.0
20/06:50am 8.4 6.6 5.3 81 1.5 SW 4 6 2 3 - - 0.0
20/06:40am 8.1 6.3 5.4 83 1.3 SSW 4 6 2 3 - - 0.0
20/06:30am 8.0 6.6 5.4 84 1.2 SSW 2 4 1 2 - - 0.0
20/06:20am 7.9 6.9 5.5 85 1.1 CALM 0 2 0 1 - - 0.0
20/06:10am 8.0 7.0 5.6 85 1.1 CALM 0 2 0 1 - - 0.0
20/06:00am 8.6 7.2 5.6 81 1.4 NNW 2 6 1 3 - - 0.0
20/05:50am 8.7 6.9 5.6 81 1.5 NNE 4 6 2 3 - - 0.0
20/05:40am 8.9 7.1 5.4 79 1.7 NNE 4 7 2 4 - - 0.0
20/05:30am 8.9 7.5 5.4 79 1.7 NNE 2 2 1 1 - - 0.0
20/05:20am 8.9 7.5 5.4 79 1.7 N 2 4 1 2 - - 0.0
20/05:10am 8.9 7.8 5.3 78 1.7 CALM 0 2 0 1 - - 0.0
20/05:00am 8.8 7.8 5.5 80 1.6 CALM 0 2 0 1 - - 0.0
20/04:50am 8.9 7.9 5.4 79 1.7 CALM 0 0 0 0 - - 0.0
20/04:40am 8.9 7.9 5.4 79 1.7 CALM 0 0 0 0 - - 0.0
20/04:30am 9.0 8.0 5.5 79 1.7 CALM 0 0 0 0 - - 0.0
20/04:20am 9.1 7.7 5.4 77 1.8 NE 2 4 1 2 - - 0.0
20/04:10am 9.1 7.7 5.4 77 1.8 NNE 2 4 1 2 - - 0.0
20/04:00am 8.9 7.5 5.5 79 1.6 E 2 4 1 2 - - 0.0
20/03:50am 9.0 8.0 5.5 79 1.7 CALM 0 0 0 0 - - 0.0
20/03:40am 9.3 8.2 5.3 76 1.9 CALM 0 4 0 2 - - 0.0
20/03:30am 9.3 8.2 5.3 76 1.9 CALM 0 0 0 0 - - 0.0
20/03:20am 9.3 8.3 5.4 76 1.9 CALM 0 0 0 0 - - 0.0
20/03:10am 9.5 8.5 5.4 75 2.0 CALM 0 0 0 0 - - 0.0
20/03:00am 9.8 8.4 5.4 74 2.1 NNE 2 6 1 3 - - 0.0
20/02:50am 10.1 9.0 5.2 71 2.3 CALM 0 2 0 1 - - 0.0
20/02:40am 9.9 8.4 5.1 72 2.3 NE 2 4 1 2 - - 0.0
20/02:30am 9.6 8.5 5.2 74 2.1 CALM 0 0 0 0 - - 0.0
20/02:20am 9.7 8.7 5.4 74 2.1 CALM 0 0 0 0 - - 0.0
20/02:10am 9.9 8.4 5.2 72 2.2 S 2 4 1 2 - - 0.0
20/02:00am 9.8 8.4 5.3 73 2.1 S 2 4 1 2 - - 0.0
20/01:50am 9.9 8.5 5.3 73 2.2 SSW 2 4 1 2 - - 0.0
20/01:40am 10.0 9.0 5.4 73 2.2 CALM 0 0 0 0 - - 0.0
20/01:30am 10.2 8.8 5.4 72 2.3 NNE 2 4 1 2 - - 0.0
20/01:20am 10.5 8.7 5.4 70 2.4 NE 4 4 2 2 - - 0.0
20/01:10am 10.9 8.7 5.4 69 2.6 NE 6 6 3 3 - - 0.0
20/01:00am 11.0 8.6 5.3 68 2.7 NE 7 7 4 4 - - 0.0
20/12:50am 10.9 8.5 5.3 68 2.7 NE 7 9 4 5 - - 0.0
20/12:40am 10.5 8.3 5.1 69 2.6 NE 6 7 3 4 - - 0.0
20/12:30am 10.3 8.1 5.2 70 2.4 NE 6 7 3 4 - - 0.0
20/12:20am 10.5 8.3 5.4 70 2.4 N 6 6 3 3 - - 0.0
20/12:10am 11.1 9.3 5.4 68 2.8 NNE 4 6 2 3 - - 0.0
20/12:00am 12.0 10.9 5.2 63 3.3 CALM 0 2 0 1 - - 0.0
 
Date/Time
EST
Temp
°C
App
Temp
°C
Dew
Point
°C
Rel
Hum
%
Delta-T
°C
Wind Press
QNH
hPa
Press
MSL
hPa
Rain since
9am
mm
Dir  Spd
km/h
Gust
km/h
Spd
kts
Gust
kts
19/11:50pm 12.2 11.1 5.1 62 3.4 CALM 0 0 0 0 - - 0.0
19/11:40pm 12.1 10.6 5.1 62 3.4 SE 2 4 1 2 - - 0.0
19/11:30pm 12.0 10.9 5.1 62 3.3 CALM 0 2 0 1 - - 0.0
19/11:20pm 11.9 10.8 4.9 62 3.4 CALM 0 0 0 0 - - 0.0
19/11:10pm 11.7 10.6 5.0 63 3.2 CALM 0 2 0 1 - - 0.0
19/11:00pm 11.8 10.3 4.9 62 3.3 N 2 4 1 2 - - 0.0
19/10:50pm 11.7 10.5 4.8 62 3.3 CALM 0 0 0 0 - - 0.0
19/10:40pm 11.7 10.6 4.9 63 3.3 CALM 0 0 0 0 - - 0.0
19/10:30pm 12.0 10.8 4.7 61 3.5 CALM 0 2 0 1 - - 0.0
19/10:20pm 12.2 11.0 4.8 60 3.6 CALM 0 0 0 0 - - 0.0
19/10:10pm 12.2 11.0 4.8 60 3.6 CALM 0 0 0 0 - - 0.0
19/10:00pm 12.4 11.2 4.8 60 3.7 CALM 0 0 0 0 - - 0.0
19/09:50pm 12.4 11.2 4.7 59 3.7 CALM 0 2 0 1 - - 0.0
19/09:40pm 12.4 10.8 4.6 59 3.7 SSW 2 2 1 1 - - 0.0
19/09:30pm 12.3 10.7 4.5 59 3.7 SW 2 4 1 2 - - 0.0
19/09:20pm 12.1 10.1 4.5 59 3.6 SSW 4 4 2 2 - - 0.0
19/09:10pm 11.8 9.4 4.5 61 3.5 S 6 6 3 3 - - 0.0
19/09:00pm 11.8 10.3 4.8 62 3.4 SW 2 4 1 2 - - 0.0
19/08:50pm 12.2 10.7 4.9 61 3.5 SW 2 4 1 2 - - 0.0
19/08:40pm 12.5 11.0 4.8 59 3.7 SW 2 6 1 3 - - 0.0
19/08:30pm 12.6 10.1 4.6 58 3.8 S 7 11 4 6 - - 0.0
19/08:20pm 12.5 10.2 4.6 58 3.8 S 6 9 3 5 - - 0.0
19/08:10pm 12.6 10.1 4.7 58 3.8 SSW 7 9 4 5 - - 0.0
19/08:00pm 12.5 10.0 4.8 59 3.7 S 7 7 4 4 - - 0.0
19/07:50pm 12.4 10.1 5.0 60 3.6 S 6 7 3 4 - - 0.0
19/07:40pm 12.4 10.2 5.2 61 3.5 SSW 6 6 3 3 - - 0.0
19/07:30pm 12.4 10.6 5.3 62 3.5 S 4 6 2 3 - - 0.0
19/07:20pm 12.5 11.1 5.7 63 3.3 SSW 2 4 1 2 - - 0.0
19/07:10pm 12.6 10.8 5.5 62 3.5 S 4 7 2 4 - - 0.0
19/07:00pm 12.6 10.5 5.9 63 3.3 S 6 7 3 4 - - 0.0
19/06:50pm 12.7 10.7 6.2 64 3.2 S 6 7 3 4 - - 0.0
19/06:40pm 12.7 10.7 6.2 64 3.2 S 6 7 3 4 - - 0.0
19/06:30pm 12.6 10.6 6.3 65 3.1 S 6 6 3 3 - - 0.0
19/06:20pm 12.5 10.9 6.2 65 3.1 S 4 6 2 3 - - 0.0
19/06:10pm 12.5 11.3 6.4 66 3.0 S 2 4 1 2 - - 0.0
19/06:00pm 12.5 11.7 6.3 66 3.1 CALM 0 0 0 0 - - 0.0
19/05:50pm 12.3 11.4 6.2 66 3.0 CALM 0 0 0 0 - - 0.0
19/05:40pm 12.2 11.3 6.2 67 3.0 CALM 0 0 0 0 - - 0.0
19/05:30pm 12.6 10.9 6.1 64 3.2 NNE 4 4 2 2 - - 0.0
19/05:20pm 13.2 11.1 6.0 61 3.6 NNE 6 7 3 4 - - 0.0
19/05:10pm 13.6 11.3 5.6 58 3.9 NNE 7 9 4 5 - - 0.0
19/05:00pm 13.6 11.3 5.7 59 3.9 NNE 7 9 4 5 - - 0.0
19/04:50pm 13.8 11.5 5.6 57 4.1 NNE 7 9 4 5 - - 0.0
19/04:40pm 14.0 11.3 5.7 57 4.1 NNE 9 11 5 6 - - 0.0
19/04:30pm 14.6 11.6 6.2 57 4.2 N 11 13 6 7 - - 0.0
19/04:20pm 15.5 12.6 6.4 54 4.6 N 11 17 6 9 - - 0.0
19/04:10pm 15.9 12.6 6.4 53 4.8 N 13 15 7 8 - - 0.0
19/04:00pm 15.9 12.9 7.7 58 4.3 NNW 13 15 7 8 - - 0.0
19/03:50pm 15.5 12.7 7.1 57 4.3 NNW 11 13 6 7 - - 0.0
19/03:40pm 14.6 12.2 7.2 61 3.8 - 9 11 5 6 - - 0.0
19/03:30pm 14.5 11.8 7.3 62 3.7 N 11 15 6 8 - - 0.0
19/03:20pm 14.7 11.5 6.8 59 4.0 N 13 17 7 9 - - 0.0
19/03:10pm 14.9 10.9 6.7 58 4.2 NNE 17 19 9 10 - - 0.0
19/03:00pm 15.4 11.8 6.8 56 4.4 N 15 17 8 9 - - 0.0
19/02:50pm 15.6 12.6 7.5 58 4.2 N 13 17 7 9 - - 0.0
19/02:40pm 16.8 13.7 7.4 54 4.9 N 13 17 7 9 - - 0.0
19/02:30pm 16.5 13.4 7.2 54 4.8 N 13 15 7 8 - - 0.0
19/02:20pm 15.8 12.7 7.2 56 4.5 N 13 17 7 9 - - 0.0
19/02:10pm 15.2 11.6 6.9 57 4.3 NNE 15 20 8 11 - - 0.0
19/02:00pm 15.2 11.3 7.1 58 4.2 NNE 17 20 9 11 - - 0.0
19/01:50pm 15.7 11.8 7.3 57 4.4 NNE 17 19 9 10 - - 0.0
19/01:40pm 15.8 12.1 7.9 59 4.1 NNE 17 20 9 11 - - 0.0
19/01:30pm 15.7 12.2 7.4 57 4.3 N 15 19 8 10 - - 0.0
19/01:20pm 15.4 12.5 8.2 62 3.8 NNE 13 17 7 9 - - 0.0
19/01:10pm 15.1 12.2 8.0 62 3.7 NNE 13 15 7 8 - - 0.0
19/01:00pm 15.2 12.6 7.7 61 3.9 NNE 11 13 6 7 - - 0.0
19/12:50pm 15.6 13.1 8.0 60 4.0 N 11 15 6 8 - - 0.0
19/12:40pm 15.8 12.9 8.0 60 4.1 N 13 17 7 9 - - 0.0
19/12:30pm 15.7 13.8 7.6 58 4.2 N 7 11 4 6 - - 0.0
19/12:20pm 14.7 12.2 8.2 65 3.4 N 11 15 6 8 - - 0.0

Other formats

Comma delimited format used in spreadsheet applications
http://www.bom.gov.au/fwo/IDN60801/IDN60801.99762.axf

JavaScript Object Notation format (JSON) in row-major order
http://www.bom.gov.au/fwo/IDN60801/IDN60801.99762.json

Data quality

Most of these data are generated automatically and are frequently updated. Quality checks on data are not normally performed. It is possible for incorrect values to appear. Refer to information at About Latest Weather Observations and please check the disclaimer before using these data.